Time;durP1;ratioP1;P1;durP2;ratioP2;P2;SDS_P1;SDS_P2;PMS_P1;PMS_P2;Temp;Humidity;BMP_temperature;BMP_pressure;BME280_temperature;BME280_humidity;BME280_pressure;Samples;Min_cycle;Max_cycle;Signal;HPM_P1;HPM_P2
2021/07/05 00:00:11;;;;;;;;;;;;;;;22.38;62.10;100195.84;5078134;28;1904;-44
2021/07/05 00:02:37;;;;;;;;;;;;;;;22.41;62.34;100190.13;5084031;28;1712;-43
2021/07/05 00:05:04;;;;;;;;;;;;;;;22.47;62.15;100202.09;5083682;28;1753;-43
2021/07/05 00:07:30;;;;;;;;;;;;;;;22.35;62.30;100199.75;5075435;28;1732;-44
2021/07/05 00:09:57;;;;;;;;;;;;;;;22.08;62.73;100203.59;5078855;28;1933;-44
2021/07/05 00:12:23;;;;;;;;;;;;;;;21.92;62.82;100188.28;5086656;28;1985;-43
2021/07/05 00:14:50;;;;;;;;;;;;;;;21.97;62.60;100188.66;5081694;28;1820;-43
2021/07/05 00:17:18;;;;;;;;;;;;;;;22.11;62.46;100187.13;5083424;28;1825;-43
2021/07/05 00:19:44;;;;;;;;;;;;;;;22.12;62.89;100212.19;5083706;28;1737;-44
2021/07/05 00:22:11;;;;;;;;;;;;;;;22.12;62.07;100191.47;5077110;28;1554;-43
2021/07/05 00:24:37;;;;;;;;;;;;;;;22.25;62.38;100196.38;5083671;28;1880;-43
2021/07/05 00:27:04;;;;;;;;;;;;;;;22.23;61.55;100184.91;5085808;28;1688;-43
2021/07/05 00:29:30;;;;;;;;;;;;;;;22.24;61.60;100192.88;5088931;28;1732;-43
2021/07/05 00:31:57;;;;;;;;;;;;;;;22.26;62.01;100181.06;5085541;28;1973;-44
2021/07/05 00:34:25;;;;;;;;;;;;;;;22.24;61.97;100175.84;5085287;28;1691;-44
2021/07/05 00:36:51;;;;;;;;;;;;;;;22.26;61.69;100181.91;5077606;28;2158;-44
2021/07/05 00:39:18;;;;;;;;;;;;;;;22.29;62.02;100178.03;5077178;28;2231;-44
2021/07/05 00:41:44;;;;;;;;;;;;;;;22.39;61.43;100192.16;5084070;28;1877;-43
2021/07/05 00:44:11;;;;;;;;;;;;;;;22.38;61.67;100179.69;5084644;28;1745;-44
2021/07/05 00:46:38;;;;;;;;;;;;;;;22.38;61.49;100190.47;5084079;28;1755;-43
2021/07/05 00:49:05;;;;;;;;;;;;;;;22.33;61.39;100174.81;5086854;28;1929;-44
2021/07/05 00:51:33;;;;;;;;;;;;;;;22.30;61.39;100172.47;5087904;28;1984;-43
2021/07/05 00:53:59;;;;;;;;;;;;;;;22.31;61.25;100181.41;5083532;28;1769;-44
2021/07/05 00:56:26;;;;;;;;;;;;;;;22.28;61.74;100162.88;5080071;28;1745;-43
2021/07/05 00:58:54;;;;;;;;;;;;;;;22.30;61.87;100171.63;5086980;28;1921;-43
2021/07/05 01:01:20;;;;;;;;;;;;;;;22.28;61.58;100163.72;5082937;28;1760;-44
2021/07/05 01:03:46;;;;;;;;;;;;;;;22.26;61.12;100175.69;5087504;28;1893;-44
2021/07/05 01:06:13;;;;;;;;;;;;;;;22.27;60.94;100177.38;5088163;28;1584;-44
2021/07/05 01:08:41;;;;;;;;;;;;;;;22.26;61.90;100178.38;5089636;28;2429;-44
2021/07/05 01:11:08;;;;;;;;;;;;;;;22.23;61.60;100185.75;5086086;28;1985;-43
2021/07/05 01:13:34;;;;;;;;;;;;;;;22.26;61.01;100171.13;5089754;28;1967;-44
2021/07/05 01:16:01;;;;;;;;;;;;;;;22.26;61.68;100170.28;5088805;28;1713;-43
2021/07/05 01:18:28;;;;;;;;;;;;;;;22.28;61.71;100170.97;5085720;28;1889;-43
2021/07/05 01:20:59;;;;;;;;;;;;;;;22.26;60.93;100170.28;5081357;28;1900;-43
2021/07/05 01:23:26;;;;;;;;;;;;;;;22.27;61.40;100169.28;5086339;28;1913;-43
2021/07/05 01:25:52;;;;;;;;;;;;;;;22.31;61.30;100178.72;5091787;28;1789;-44
2021/07/05 01:28:18;;;;;;;;;;;;;;;22.31;61.25;100162.56;5088853;28;1737;-43
2021/07/05 01:30:45;;;;;;;;;;;;;;;22.28;61.36;100158.31;5078127;28;1869;-43
2021/07/05 01:33:12;;;;;;;;;;;;;;;22.26;60.83;100164.91;5089835;28;1976;-44
2021/07/05 01:35:39;;;;;;;;;;;;;;;22.27;61.11;100161.22;5087535;28;2048;-44
2021/07/05 01:38:10;;;;;;;;;;;;;;;22.19;61.19;100159.34;5088286;28;2116;-44
2021/07/05 01:40:37;;;;;;;;;;;;;;;21.99;62.21;100165.09;5085762;28;1700;-43
2021/07/05 01:43:04;;;;;;;;;;;;;;;21.82;62.19;100155.34;5090337;28;1783;-44
2021/07/05 01:45:32;;;;;;;;;;;;;;;21.86;61.64;100164.75;5090238;28;1741;-43
2021/07/05 01:47:59;;;;;;;;;;;;;;;21.99;61.46;100164.25;5081264;28;1751;-44
2021/07/05 01:50:26;;;;;;;;;;;;;;;21.89;60.83;100150.97;5087789;28;1739;-43
2021/07/05 01:52:53;;;;;;;;;;;;;;;21.69;61.37;100157.72;5083738;28;1890;-44
2021/07/05 01:55:27;;;;;;;;;;;;;;;21.76;61.67;100159.53;5087405;28;1706;-44
2021/07/05 01:57:54;;;;;;;;;;;;;;;21.80;60.82;100166.25;5077272;28;1483;-44
2021/07/05 02:02:55;;;;;;;;;;;;;;;22.00;60.85;100166.78;4014798;26;2234;-43
2021/07/05 02:05:23;;;;;;;;;;;;;;;22.06;60.87;100165.25;5021280;28;1833;-44
2021/07/05 02:07:50;;;;;;;;;;;;;;;22.15;60.63;100166.91;5021961;28;1725;-44
2021/07/05 02:10:21;;;;;;;;;;;;;;;22.17;60.29;100178.34;5013943;28;1837;-43
2021/07/05 02:12:50;;;;;;;;;;;;;;;22.21;60.07;100181.56;5024449;28;1975;-43
2021/07/05 02:18:00;;;;;;;;;;;;;;;22.07;60.45;100188.47;5031288;28;3485;-43
2021/07/05 02:20:32;;;;;;;;;;;;;;;22.09;60.43;100183.75;5029522;28;1887;-44
2021/07/05 02:23:05;;;;;;;;;;;;;;;22.10;60.85;100187.28;5021862;28;1723;-43
2021/07/05 02:25:37;;;;;;;;;;;;;;;22.04;60.36;100178.03;5019394;28;1628;-43
2021/07/05 02:28:13;;;;;;;;;;;;;;;22.07;60.62;100176.88;5021589;28;1739;-44
2021/07/05 02:31:02;;;;;;;;;;;;;;;22.08;60.63;100178.53;5013299;28;1790;-43
2021/07/05 02:36:11;;;;;;;;;;;;;;;22.09;60.44;100173.00;5024130;28;2475;-43
2021/07/05 02:41:21;;;;;;;;;;;;;;;21.98;60.13;100186.78;5021493;28;2004;-43
2021/07/05 02:43:52;;;;;;;;;;;;;;;22.00;60.21;100188.31;5027433;28;1774;-43
2021/07/05 02:46:27;;;;;;;;;;;;;;;22.01;60.28;100183.78;5025491;28;1812;-44
2021/07/05 02:48:54;;;;;;;;;;;;;;;21.98;59.96;100189.47;5017433;28;1693;-43
2021/07/05 02:51:21;;;;;;;;;;;;;;;21.99;60.08;100180.41;5013232;28;1933;-43
2021/07/05 02:53:50;;;;;;;;;;;;;;;21.99;60.08;100196.56;5019819;28;1742;-46
2021/07/05 02:56:27;;;;;;;;;;;;;;;21.98;60.24;100195.69;5014760;28;1723;-43
2021/07/05 02:59:09;;;;;;;;;;;;;;;22.00;59.83;100192.84;5015652;28;1702;-43
2021/07/05 03:01:40;;;;;;;;;;;;;;;22.00;60.59;100199.09;5011626;28;1926;-43
2021/07/05 03:04:10;;;;;;;;;;;;;;;22.00;59.95;100192.84;5018597;28;1800;-43
2021/07/05 03:06:40;;;;;;;;;;;;;;;22.02;60.03;100207.84;5027624;28;1441;-43
2021/07/05 03:09:08;;;;;;;;;;;;;;;22.03;60.32;100195.22;5022854;28;1725;-43
2021/07/05 03:11:38;;;;;;;;;;;;;;;22.07;59.79;100196.56;5013261;28;2516;-43
2021/07/05 03:14:08;;;;;;;;;;;;;;;22.05;60.04;100195.88;5020104;28;1627;-43
2021/07/05 03:19:17;;;;;;;;;;;;;;;22.00;59.69;100191.00;5018737;28;2490;-43
2021/07/05 03:21:46;;;;;;;;;;;;;;;22.02;60.19;100202.47;5020463;28;1507;-43
2021/07/05 03:24:21;;;;;;;;;;;;;;;22.04;60.35;100195.06;5018346;28;1703;-40
2021/07/05 03:26:51;;;;;;;;;;;;;;;22.12;60.41;100190.66;5016397;28;1567;-43
2021/07/05 03:29:23;;;;;;;;;;;;;;;22.11;60.62;100205.97;5028808;28;1501;-43
2021/07/05 03:31:57;;;;;;;;;;;;;;;22.05;60.81;100201.25;5025897;28;1906;-43
2021/07/05 03:34:25;;;;;;;;;;;;;;;22.07;60.29;100198.41;5017984;28;2052;-43
2021/07/05 03:36:55;;;;;;;;;;;;;;;22.07;60.91;100199.25;5020367;28;1570;-43
2021/07/05 03:39:26;;;;;;;;;;;;;;;22.09;60.98;100186.44;5019003;28;1850;-44
2021/07/05 03:41:56;;;;;;;;;;;;;;;22.02;60.96;100185.44;5023287;28;1861;-43
2021/07/05 03:44:36;;;;;;;;;;;;;;;22.11;60.63;100187.13;5016231;28;1977;-43
2021/07/05 03:47:02;;;;;;;;;;;;;;;22.05;61.20;100180.56;5026654;28;1678;-43
2021/07/05 03:49:30;;;;;;;;;;;;;;;22.12;60.69;100190.66;5016269;28;1869;-43
2021/07/05 03:51:56;;;;;;;;;;;;;;;22.03;61.42;100182.59;5025067;28;1883;-43
2021/07/05 03:54:26;;;;;;;;;;;;;;;22.11;60.51;100179.03;5028171;28;2317;-44
2021/07/05 03:56:56;;;;;;;;;;;;;;;22.15;61.26;100180.38;5024489;28;1651;-43
2021/07/05 03:59:25;;;;;;;;;;;;;;;22.20;60.88;100156.47;5021608;28;1812;-43
2021/07/05 04:01:55;;;;;;;;;;;;;;;22.24;61.18;100165.94;5011064;28;1688;-46
2021/07/05 04:04:25;;;;;;;;;;;;;;;22.30;61.17;100171.63;5020599;28;1521;-43
2021/07/05 04:06:53;;;;;;;;;;;;;;;22.24;61.56;100173.16;5012547;28;2055;-43
2021/07/05 04:09:22;;;;;;;;;;;;;;;22.23;61.33;100156.13;5017465;28;1828;-44
2021/07/05 04:11:56;;;;;;;;;;;;;;;22.29;61.76;100170.78;5023542;28;1898;-43
2021/07/05 04:14:25;;;;;;;;;;;;;;;22.31;61.49;100154.47;5020204;28;1837;-44
2021/07/05 04:16:53;;;;;;;;;;;;;;;22.40;61.28;100165.06;5026376;28;1990;-44
2021/07/05 04:19:28;;;;;;;;;;;;;;;22.38;61.08;100153.63;5019004;28;1882;-43
2021/07/05 04:22:03;;;;;;;;;;;;;;;22.41;61.85;100168.59;5020111;28;1537;-43
2021/07/05 04:24:32;;;;;;;;;;;;;;;22.43;61.47;100163.88;5030478;28;1849;-43
2021/07/05 04:27:01;;;;;;;;;;;;;;;22.42;61.43;100148.69;5023469;28;1913;-43
2021/07/05 04:29:29;;;;;;;;;;;;;;;22.38;62.00;100156.31;5023780;28;1564;-44
2021/07/05 04:32:01;;;;;;;;;;;;;;;22.47;61.96;100150.88;5025488;28;1980;-43
2021/07/05 04:34:36;;;;;;;;;;;;;;;22.56;61.76;100153.38;5026931;28;1872;-43
2021/07/05 04:37:06;;;;;;;;;;;;;;;22.23;62.55;100155.28;5020180;28;1515;-43
2021/07/05 04:39:36;;;;;;;;;;;;;;;22.04;63.75;100151.09;5019717;28;1624;-43
2021/07/05 04:42:11;;;;;;;;;;;;;;;22.12;63.76;100153.78;5028501;28;1595;-43
2021/07/05 04:44:41;;;;;;;;;;;;;;;22.19;63.67;100144.03;5027908;28;1680;-43
2021/07/05 04:47:16;;;;;;;;;;;;;;;22.23;63.18;100153.44;5026327;28;1738;-43
2021/07/05 04:49:45;;;;;;;;;;;;;;;22.19;63.74;100162.88;5019607;28;1763;-43
2021/07/05 04:52:12;;;;;;;;;;;;;;;22.07;64.23;100139.19;5022168;28;1910;-43
2021/07/05 04:54:47;;;;;;;;;;;;;;;21.98;64.53;100146.41;5023557;28;1559;-44
2021/07/05 04:57:17;;;;;;;;;;;;;;;22.01;64.58;100148.78;5018681;28;2451;-43
2021/07/05 04:59:43;;;;;;;;;;;;;;;21.96;64.52;100143.88;5026241;28;1896;-43
2021/07/05 05:02:13;;;;;;;;;;;;;;;21.95;64.44;100141.38;5028107;28;1615;-43
2021/07/05 05:04:42;;;;;;;;;;;;;;;22.01;65.13;100140.69;5018168;28;1957;-43
2021/07/05 05:07:10;;;;;;;;;;;;;;;21.97;64.66;100145.56;5015088;28;1747;-43
2021/07/05 05:09:40;;;;;;;;;;;;;;;22.28;64.05;100146.72;5022789;28;1464;-43
2021/07/05 05:12:09;;;;;;;;;;;;;;;22.57;63.00;100125.41;5021363;28;1906;-44
2021/07/05 05:14:37;;;;;;;;;;;;;;;22.79;62.56;100139.97;5028137;28;1713;-43
2021/07/05 05:17:06;;;;;;;;;;;;;;;22.89;63.04;100134.34;5019437;28;1638;-43
2021/07/05 05:19:47;;;;;;;;;;;;;;;22.87;62.98;100140.94;5022615;28;1923;-43
2021/07/05 05:22:20;;;;;;;;;;;;;;;22.94;62.95;100142.78;5021990;28;2080;-43
2021/07/05 05:24:46;;;;;;;;;;;;;;;23.05;62.74;100151.50;5021942;28;1939;-43
2021/07/05 05:27:16;;;;;;;;;;;;;;;23.11;62.74;100148.94;5025309;28;1707;-43
2021/07/05 05:29:45;;;;;;;;;;;;;;;23.16;62.82;100140.31;5031876;28;1818;-43
2021/07/05 05:32:13;;;;;;;;;;;;;;;23.21;62.73;100141.44;5024272;28;1906;-43
2021/07/05 05:34:48;;;;;;;;;;;;;;;23.22;63.68;100150.41;5024949;28;1695;-43
2021/07/05 05:37:20;;;;;;;;;;;;;;;23.24;63.28;100153.75;5018444;28;1933;-43
2021/07/05 05:39:48;;;;;;;;;;;;;;;23.22;63.44;100145.00;5016304;28;1958;-43
2021/07/05 05:42:19;;;;;;;;;;;;;;;23.25;63.48;100143.81;5015446;28;1761;-43
2021/07/05 05:44:48;;;;;;;;;;;;;;;23.22;63.57;100139.59;5025730;28;1627;-44
2021/07/05 05:47:23;;;;;;;;;;;;;;;23.22;63.63;100134.22;5021198;28;2197;-44
2021/07/05 05:49:52;;;;;;;;;;;;;;;23.21;63.56;100132.53;5021076;28;1894;-44
2021/07/05 05:52:25;;;;;;;;;;;;;;;23.30;63.24;100127.91;5026002;28;1968;-43
2021/07/05 05:54:53;;;;;;;;;;;;;;;23.27;63.47;100123.72;5026125;28;1879;-43
2021/07/05 05:57:27;;;;;;;;;;;;;;;23.27;63.50;100129.09;5021909;28;1887;-44
2021/07/05 05:59:57;;;;;;;;;;;;;;;23.31;63.69;100135.81;5016020;28;1835;-43
2021/07/05 06:02:24;;;;;;;;;;;;;;;23.32;63.35;100126.72;5016198;28;1733;-43
2021/07/05 06:04:52;;;;;;;;;;;;;;;23.36;63.46;100133.44;5020322;28;1622;-44
2021/07/05 06:07:24;;;;;;;;;;;;;;;23.42;63.19;100121.91;5016766;28;1552;-44
2021/07/05 06:09:51;;;;;;;;;;;;;;;23.45;63.05;100141.47;5022791;28;1876;-43
2021/07/05 06:12:23;;;;;;;;;;;;;;;23.54;63.21;100132.31;5026472;28;2071;-43
2021/07/05 06:14:51;;;;;;;;;;;;;;;23.46;63.24;100125.09;5027749;28;2089;-43
2021/07/05 06:17:22;;;;;;;;;;;;;;;23.47;63.06;100126.75;5016402;28;1795;-44
2021/07/05 06:19:48;;;;;;;;;;;;;;;23.54;63.13;100130.44;5028723;28;1696;-43
2021/07/05 06:22:26;;;;;;;;;;;;;;;23.58;63.11;100128.22;5024168;28;1594;-44
2021/07/05 06:24:56;;;;;;;;;;;;;;;23.62;63.16;100124.97;5020810;28;1785;-43
2021/07/05 06:27:25;;;;;;;;;;;;;;;23.62;63.21;100113.34;5023332;28;1679;-44
2021/07/05 06:29:54;;;;;;;;;;;;;;;23.61;63.32;100123.28;5022558;28;1612;-43
2021/07/05 06:32:24;;;;;;;;;;;;;;;23.60;63.16;100118.06;5026892;28;1839;-43
2021/07/05 06:34:53;;;;;;;;;;;;;;;23.59;63.55;100130.72;5024348;28;1906;-44
2021/07/05 06:37:21;;;;;;;;;;;;;;;23.57;63.48;100132.75;5022597;28;1638;-44
2021/07/05 06:39:48;;;;;;;;;;;;;;;23.59;63.87;100124.47;5026913;28;1840;-43
2021/07/05 06:42:22;;;;;;;;;;;;;;;23.58;63.54;100115.56;5017680;28;1883;-43
2021/07/05 06:44:50;;;;;;;;;;;;;;;23.60;63.94;100120.78;5021291;28;1700;-43
2021/07/05 06:47:24;;;;;;;;;;;;;;;23.66;63.69;100130.84;5014767;28;1694;-44
2021/07/05 06:49:54;;;;;;;;;;;;;;;23.69;63.34;100118.84;5017901;28;1544;-43
2021/07/05 06:52:23;;;;;;;;;;;;;;;23.71;63.55;100112.22;5025806;28;1564;-43
2021/07/05 06:55:00;;;;;;;;;;;;;;;23.71;63.54;100112.22;5023508;28;1987;-43
2021/07/05 06:57:35;;;;;;;;;;;;;;;23.74;63.55;100122.66;5017076;28;1754;-43
2021/07/05 07:00:14;;;;;;;;;;;;;;;23.75;63.22;100116.22;5017373;28;1772;-43
2021/07/05 07:02:49;;;;;;;;;;;;;;;23.74;63.67;100127.25;5023404;28;1706;-43
2021/07/05 07:05:24;;;;;;;;;;;;;;;23.76;63.42;100114.41;5022486;28;1496;-43
2021/07/05 07:07:59;;;;;;;;;;;;;;;23.77;63.53;100111.53;5024238;28;1698;-43
2021/07/05 07:10:27;;;;;;;;;;;;;;;23.81;63.69;100115.56;5020428;28;1690;-43
2021/07/05 07:12:57;;;;;;;;;;;;;;;23.83;63.78;100109.94;5025306;28;1973;-43
2021/07/05 07:15:29;;;;;;;;;;;;;;;23.81;63.87;100118.25;5026509;28;1526;-44
2021/07/05 07:18:00;;;;;;;;;;;;;;;23.78;64.38;100110.50;5020501;28;1797;-43
2021/07/05 07:20:28;;;;;;;;;;;;;;;23.80;63.98;100100.38;5018307;28;1708;-43
2021/07/05 07:23:02;;;;;;;;;;;;;;;23.79;64.32;100112.16;5015272;28;1901;-43
2021/07/05 07:25:29;;;;;;;;;;;;;;;23.85;64.05;100099.81;5016951;28;1801;-43
2021/07/05 07:27:57;;;;;;;;;;;;;;;23.86;64.18;100097.97;5018181;28;1539;-44
2021/07/05 07:30:23;;;;;;;;;;;;;;;23.85;64.43;100105.22;5023301;28;1111;-43
2021/07/05 07:32:50;;;;;;;;;;;;;;;23.78;64.57;100113.22;5022664;28;1770;-43
2021/07/05 07:35:18;;;;;;;;;;;;;;;23.76;64.34;100095.50;5021627;28;1698;-43
2021/07/05 07:37:46;;;;;;;;;;;;;;;23.75;64.50;100113.53;5014732;28;2389;-43
2021/07/05 07:40:18;;;;;;;;;;;;;;;23.75;64.78;100115.41;5022010;28;1135;-43
2021/07/05 07:42:45;;;;;;;;;;;;;;;23.76;64.90;100115.22;5023324;28;1170;-43
2021/07/05 07:45:13;;;;;;;;;;;;;;;23.74;64.60;100089.44;5024343;28;1737;-43
2021/07/05 07:47:40;;;;;;;;;;;;;;;23.73;64.56;100103.94;5018574;28;2050;-43
2021/07/05 07:50:08;;;;;;;;;;;;;;;23.75;65.03;100124.34;5021371;28;1709;-43
2021/07/05 07:52:34;;;;;;;;;;;;;;;23.72;65.14;100116.63;5014398;28;1355;-43
2021/07/05 07:55:02;;;;;;;;;;;;;;;23.74;65.18;100116.44;5024990;28;2077;-43
2021/07/05 07:57:29;;;;;;;;;;;;;;;23.73;64.93;100112.88;5028822;28;1757;-43
2021/07/05 07:59:55;;;;;;;;;;;;;;;23.71;64.52;100090.63;5024230;28;1888;-43
2021/07/05 08:02:23;;;;;;;;;;;;;;;23.73;64.83;100107.47;5022402;28;1767;-43
2021/07/05 08:04:49;;;;;;;;;;;;;;;23.72;65.05;100113.09;5025212;28;2434;-43
2021/07/05 08:07:16;;;;;;;;;;;;;;;23.72;65.01;100118.47;5019095;28;1431;-43
2021/07/05 08:09:42;;;;;;;;;;;;;;;23.69;65.16;100098.06;5025518;28;1837;-43
2021/07/05 08:12:11;;;;;;;;;;;;;;;23.72;64.96;100102.28;5026207;28;1782;-43
2021/07/05 08:14:37;;;;;;;;;;;;;;;23.73;64.99;100110.19;5026539;28;1910;-43
2021/07/05 08:17:04;;;;;;;;;;;;;;;23.74;65.22;100117.28;5027927;28;1736;-43
2021/07/05 08:19:32;;;;;;;;;;;;;;;23.70;65.33;100105.16;5027816;28;1778;-43
2021/07/05 08:21:58;;;;;;;;;;;;;;;23.72;64.98;100107.69;5018288;28;1352;-43
2021/07/05 08:24:25;;;;;;;;;;;;;;;23.72;64.96;100111.22;5024223;28;1749;-43
2021/07/05 08:26:51;;;;;;;;;;;;;;;23.72;65.11;100113.91;5024539;28;1806;-43
2021/07/05 08:29:18;;;;;;;;;;;;;;;23.72;65.00;100091.50;5024387;28;1808;-43
2021/07/05 08:31:44;;;;;;;;;;;;;;;23.72;64.98;100105.81;5023733;28;1953;-43
2021/07/05 08:34:11;;;;;;;;;;;;;;;23.71;65.11;100089.78;5023095;28;1941;-43
2021/07/05 08:36:40;;;;;;;;;;;;;;;23.73;65.00;100101.25;5019111;28;1229;-43
2021/07/05 08:39:07;;;;;;;;;;;;;;;23.73;65.09;100096.69;5018765;28;1793;-43
2021/07/05 08:41:34;;;;;;;;;;;;;;;23.70;65.17;100088.97;5026807;28;1757;-43
2021/07/05 08:44:00;;;;;;;;;;;;;;;23.74;64.78;100105.63;5026557;28;1781;-43
2021/07/05 08:46:27;;;;;;;;;;;;;;;23.71;65.04;100095.19;5026770;28;1749;-43
2021/07/05 08:48:53;;;;;;;;;;;;;;;23.71;65.07;100096.03;5033777;28;1728;-43
2021/07/05 08:51:21;;;;;;;;;;;;;;;23.70;65.08;100083.56;5020112;28;1332;-43
2021/07/05 08:53:51;;;;;;;;;;;;;;;23.72;64.94;100088.78;5033854;28;1914;-43
2021/07/05 08:56:18;;;;;;;;;;;;;;;23.75;65.23;100083.00;5026794;28;1769;-43
2021/07/05 08:58:46;;;;;;;;;;;;;;;23.73;65.46;100098.53;5024798;28;1790;-43
2021/07/05 09:01:13;;;;;;;;;;;;;;;23.72;65.36;100086.91;5026856;28;1811;-44
2021/07/05 09:03:40;;;;;;;;;;;;;;;23.71;65.34;100093.31;5025622;28;1926;-43
2021/07/05 09:06:07;;;;;;;;;;;;;;;23.71;65.20;100079.81;5025398;28;1237;-43
2021/07/05 09:08:38;;;;;;;;;;;;;;;23.74;65.24;100082.19;5021664;28;1547;-43
2021/07/05 09:13:50;;;;;;;;;;;;;;;23.80;64.70;100078.78;5026289;28;1962;-43
2021/07/05 09:16:33;;;;;;;;;;;;;;;23.77;65.15;100068.31;5020595;28;1476;-43
2021/07/05 09:19:02;;;;;;;;;;;;;;;23.81;64.88;100080.47;5024774;28;1680;-43
2021/07/05 09:21:31;;;;;;;;;;;;;;;23.82;65.26;100076.72;5016414;28;2185;-43
2021/07/05 09:24:00;;;;;;;;;;;;;;;23.77;64.96;100081.81;5026874;28;1702;-43
2021/07/05 09:26:30;;;;;;;;;;;;;;;23.80;64.45;100081.47;5023185;28;1553;-43
2021/07/05 09:28:58;;;;;;;;;;;;;;;23.78;65.06;100080.81;5029201;28;1643;-43
2021/07/05 09:31:36;;;;;;;;;;;;;;;23.79;64.92;100084.34;5023538;28;1959;-42
2021/07/05 09:34:06;;;;;;;;;;;;;;;23.81;64.90;100083.16;5028885;28;1918;-43
2021/07/05 09:36:35;;;;;;;;;;;;;;;23.82;64.83;100089.38;5017436;28;1789;-43
2021/07/05 09:39:10;;;;;;;;;;;;;;;23.85;65.01;100088.19;5017702;28;1741;-42
2021/07/05 09:41:43;;;;;;;;;;;;;;;23.81;64.71;100064.25;5024408;28;1725;-43
2021/07/05 09:44:12;;;;;;;;;;;;;;;23.90;65.12;100058.78;5031791;28;1688;-42
2021/07/05 09:46:43;;;;;;;;;;;;;;;23.84;64.99;100059.50;5028025;28;1698;-43
2021/07/05 09:49:17;;;;;;;;;;;;;;;23.84;65.10;100052.25;5031202;28;1758;-43
2021/07/05 09:51:50;;;;;;;;;;;;;;;23.86;65.22;100060.16;5023492;28;1841;-42
2021/07/05 09:54:26;;;;;;;;;;;;;;;23.89;66.03;100055.22;5020460;28;1991;-42
2021/07/05 09:56:58;;;;;;;;;;;;;;;23.92;65.35;100070.22;5026102;28;1701;-42
2021/07/05 09:59:29;;;;;;;;;;;;;;;23.90;65.69;100056.06;5025444;28;1714;-42
2021/07/05 10:02:06;;;;;;;;;;;;;;;23.87;65.26;100064.53;5033034;28;1753;-42
2021/07/05 10:04:37;;;;;;;;;;;;;;;23.88;66.19;100050.03;5029312;28;1955;-42
2021/07/05 10:07:09;;;;;;;;;;;;;;;23.89;66.02;100051.69;5019257;28;2057;-42
2021/07/05 10:09:38;;;;;;;;;;;;;;;23.87;66.48;100059.97;5029495;28;1763;-42
2021/07/05 10:12:33;;;;;;;;;;;;;;;23.85;67.18;100042.28;5020896;28;1774;-42
2021/07/05 10:15:05;;;;;;;;;;;;;;;23.86;66.95;100044.78;5014831;28;2004;-42
2021/07/05 10:17:32;;;;;;;;;;;;;;;23.82;67.14;100049.72;5017624;28;1707;-43
2021/07/05 10:20:00;;;;;;;;;;;;;;;23.78;67.52;100036.78;5024950;28;1701;-42
2021/07/05 10:22:27;;;;;;;;;;;;;;;23.77;67.11;100046.72;5025905;28;1649;-42
2021/07/05 10:24:55;;;;;;;;;;;;;;;23.77;66.91;100045.88;5021134;28;1645;-42
2021/07/05 10:27:21;;;;;;;;;;;;;;;23.72;66.96;100032.94;5020621;28;1981;-42
2021/07/05 10:29:51;;;;;;;;;;;;;;;23.78;66.99;100037.63;5023189;28;1483;-42
2021/07/05 10:32:25;;;;;;;;;;;;;;;23.77;66.62;100041.31;5006577;28;1646;-42
2021/07/05 10:34:53;;;;;;;;;;;;;;;23.82;66.21;100043.50;5022667;28;1906;-42
2021/07/05 10:37:34;;;;;;;;;;;;;;;23.86;66.49;100043.97;5021511;28;1485;-43
2021/07/05 10:40:04;;;;;;;;;;;;;;;23.85;66.39;100026.06;5019892;28;2063;-43
2021/07/05 10:42:35;;;;;;;;;;;;;;;23.82;66.80;100035.38;5025003;28;1727;-42
2021/07/05 10:45:05;;;;;;;;;;;;;;;23.84;66.72;100046.84;5025978;28;1653;-39
2021/07/05 10:47:47;;;;;;;;;;;;;;;23.83;66.42;100039.75;5019565;28;1609;-42
2021/07/05 10:50:32;;;;;;;;;;;;;;;23.82;66.76;100038.94;5019919;28;1702;-42
2021/07/05 10:52:58;;;;;;;;;;;;;;;23.81;67.56;100031.88;5017809;28;1761;-42
2021/07/05 10:55:38;;;;;;;;;;;;;;;23.80;67.29;100022.06;5017666;28;1916;-43
2021/07/05 10:58:14;;;;;;;;;;;;;;;23.79;67.46;100027.66;5024464;28;1839;-42
2021/07/05 11:00:41;;;;;;;;;;;;;;;23.79;67.25;100012.28;5024224;28;1686;-43
2021/07/05 11:03:09;;;;;;;;;;;;;;;23.81;67.00;100037.25;5019520;28;1519;-42
2021/07/05 11:05:42;;;;;;;;;;;;;;;23.81;67.16;100026.47;5023450;28;1966;-43
2021/07/05 11:08:18;;;;;;;;;;;;;;;23.78;67.26;100026.81;5017512;28;1768;-43
2021/07/05 11:10:45;;;;;;;;;;;;;;;23.78;67.18;100017.88;5018427;28;1373;-42
2021/07/05 11:13:12;;;;;;;;;;;;;;;23.81;66.76;100023.75;5020013;28;1651;-42
2021/07/05 11:15:49;;;;;;;;;;;;;;;23.81;67.23;100007.56;5020675;28;2265;-43
2021/07/05 11:18:34;;;;;;;;;;;;;;;23.81;67.75;100012.97;5021847;28;1838;-42
2021/07/05 11:21:02;;;;;;;;;;;;;;;23.78;67.57;100005.22;5018660;28;1774;-42
2021/07/05 11:23:48;;;;;;;;;;;;;;;23.80;67.63;100007.75;5021458;28;2056;-43
2021/07/05 11:26:17;;;;;;;;;;;;;;;23.78;67.63;100009.78;5024308;28;2260;-42
2021/07/05 11:28:44;;;;;;;;;;;;;;;23.80;67.46;100013.13;5027725;28;2001;-43
2021/07/05 11:31:19;;;;;;;;;;;;;;;23.78;67.39;100005.22;5021484;28;1743;-42
2021/07/05 11:33:45;;;;;;;;;;;;;;;23.77;67.40;99998.13;5020289;28;1654;-42
2021/07/05 11:36:20;;;;;;;;;;;;;;;23.78;67.56;100001.69;5018910;28;1980;-42
2021/07/05 11:38:58;;;;;;;;;;;;;;;23.79;67.45;100004.19;5022743;28;1757;-42
2021/07/05 11:41:26;;;;;;;;;;;;;;;23.75;67.65;99999.31;5020223;28;1762;-43
2021/07/05 11:43:55;;;;;;;;;;;;;;;23.78;67.43;100002.53;5025046;28;1965;-42
2021/07/05 11:46:40;;;;;;;;;;;;;;;23.74;67.83;99998.50;5023986;28;2068;-42
2021/07/05 11:49:07;;;;;;;;;;;;;;;23.74;66.98;100003.88;5023828;28;1761;-42
2021/07/05 11:51:44;;;;;;;;;;;;;;;23.73;67.50;99991.41;5023299;28;1645;-42
2021/07/05 11:54:14;;;;;;;;;;;;;;;23.76;67.26;100001.00;5016864;28;2001;-42
2021/07/05 11:56:41;;;;;;;;;;;;;;;23.73;67.69;99988.69;5023123;28;2041;-42
2021/07/05 11:59:09;;;;;;;;;;;;;;;23.74;67.64;99987.69;5018455;28;1754;-42
2021/07/05 12:01:37;;;;;;;;;;;;;;;23.74;67.39;99974.19;5014118;28;1713;-43
2021/07/05 12:04:11;;;;;;;;;;;;;;;23.75;67.61;99975.84;5019064;28;1873;-42
2021/07/05 12:06:49;;;;;;;;;;;;;;;23.77;67.34;99981.94;5018909;28;1410;-42
2021/07/05 12:09:17;;;;;;;;;;;;;;;23.77;67.61;99987.34;5025818;28;1618;-42
2021/07/05 12:11:44;;;;;;;;;;;;;;;23.78;67.78;99993.59;5027841;28;1957;-42
2021/07/05 12:14:13;;;;;;;;;;;;;;;23.77;67.46;99992.72;5026861;28;1805;-42
2021/07/05 12:16:41;;;;;;;;;;;;;;;23.75;67.82;99975.84;5029515;28;1957;-43
2021/07/05 12:19:10;;;;;;;;;;;;;;;23.76;67.95;99991.03;5021222;28;1791;-42
2021/07/05 12:21:37;;;;;;;;;;;;;;;23.76;67.37;99985.63;5023027;28;1024;-42
2021/07/05 12:24:16;;;;;;;;;;;;;;;23.71;67.71;99971.03;5027090;28;1742;-42
2021/07/05 12:26:44;;;;;;;;;;;;;;;23.72;67.87;99967.31;5030260;28;1757;-42
2021/07/05 12:29:13;;;;;;;;;;;;;;;23.72;67.83;99965.44;5022036;28;1733;-42
2021/07/05 12:31:50;;;;;;;;;;;;;;;23.74;67.75;99967.97;5024874;28;1685;-43
2021/07/05 12:34:31;;;;;;;;;;;;;;;23.75;67.70;99969.63;5026288;28;1801;-42
2021/07/05 12:36:58;;;;;;;;;;;;;;;23.72;68.23;99956.50;5014927;28;1345;-43
2021/07/05 12:39:26;;;;;;;;;;;;;;;23.74;67.77;99971.50;5024374;28;1998;-43
2021/07/05 12:41:52;;;;;;;;;;;;;;;23.71;67.49;99965.63;5024799;28;2023;-43
2021/07/05 12:44:19;;;;;;;;;;;;;;;23.79;67.29;99981.75;5035232;28;1907;-42
2021/07/05 12:46:46;;;;;;;;;;;;;;;23.78;66.95;99975.53;5030617;28;1818;-42
2021/07/05 12:49:12;;;;;;;;;;;;;;;23.79;67.28;99971.78;5023079;28;1842;-42
2021/07/05 12:51:40;;;;;;;;;;;;;;;23.79;67.49;99966.38;5024058;28;1830;-42
2021/07/05 12:54:16;;;;;;;;;;;;;;;23.87;67.29;99964.63;5025949;28;1876;-43
2021/07/05 12:56:44;;;;;;;;;;;;;;;23.85;67.30;99948.59;5023582;28;1975;-42
2021/07/05 12:59:16;;;;;;;;;;;;;;;23.90;66.68;99965.09;5023707;28;1829;-42
2021/07/05 13:01:43;;;;;;;;;;;;;;;23.95;66.89;99964.53;5028188;28;1879;-42
2021/07/05 13:04:11;;;;;;;;;;;;;;;23.92;66.72;99962.22;5026554;28;1933;-42
2021/07/05 13:06:39;;;;;;;;;;;;;;;23.98;66.66;99959.59;5021029;28;1529;-42
2021/07/05 13:09:07;;;;;;;;;;;;;;;23.98;66.61;99950.66;5027307;28;1951;-42
2021/07/05 13:11:34;;;;;;;;;;;;;;;24.04;66.97;99966.09;5033780;28;1866;-43
2021/07/05 13:14:10;;;;;;;;;;;;;;;24.02;66.75;99943.84;5023185;28;1815;-42
2021/07/05 13:16:37;;;;;;;;;;;;;;;24.01;66.41;99952.97;5022428;28;1902;-42